Time;durP1;ratioP1;P1;durP2;ratioP2;P2;SDS_P1;SDS_P2;PMS_P1;PMS_P2;Temp;Humidity;BMP_temperature;BMP_pressure;BME280_temperature;BME280_humidity;BME280_pressure;Samples;Min_cycle;Max_cycle;Signal;HPM_P1;HPM_P2
2023/02/26 00:02:16;;;;;;;6.25;1.30;;;0.40;99.90;;;;;;5020793;28;20021;-77
2023/02/26 00:04:42;;;;;;;4.20;1.20;;;0.40;99.90;;;;;;5026419;28;20092;-75
2023/02/26 00:07:09;;;;;;;7.05;1.23;;;0.40;99.90;;;;;;5004796;28;20021;-74
2023/02/26 00:09:35;;;;;;;6.30;1.08;;;0.40;99.90;;;;;;5019060;28;20029;-74
2023/02/26 00:12:01;;;;;;;3.85;1.27;;;0.40;99.90;;;;;;5005556;28;20056;-75
2023/02/26 00:14:27;;;;;;;6.20;1.48;;;0.40;99.90;;;;;;5024518;28;20072;-77
2023/02/26 00:17:16;;;;;;;6.93;1.23;;;0.40;99.90;;;;;;5008036;28;20039;-75
2023/02/26 00:19:42;;;;;;;6.25;1.40;;;0.40;99.90;;;;;;4978416;28;20045;-75
2023/02/26 00:22:08;;;;;;;7.43;1.27;;;0.40;99.90;;;;;;5017542;28;20489;-77
2023/02/26 00:24:34;;;;;;;4.63;1.30;;;0.40;99.90;;;;;;5019799;28;20025;-75
2023/02/26 00:27:00;;;;;;;7.10;1.02;;;0.40;99.90;;;;;;5011465;28;20029;-75
2023/02/26 00:29:26;;;;;;;5.15;1.17;;;0.40;99.90;;;;;;5020029;28;20033;-77
2023/02/26 00:31:52;;;;;;;5.82;1.20;;;0.40;99.90;;;;;;5019718;28;20057;-76
2023/02/26 00:34:18;;;;;;;4.30;0.95;;;0.40;99.90;;;;;;5001543;28;20089;-78
2023/02/26 00:37:08;;;;;;;4.82;0.98;;;0.40;99.90;;;;;;5018043;28;20030;-78
2023/02/26 00:39:42;;;;;;;2.58;0.80;;;0.40;99.90;;;;;;5023729;28;20076;-76
2023/02/26 00:42:08;;;;;;;2.78;1.00;;;0.30;99.90;;;;;;5003583;28;20030;-75
2023/02/26 00:44:34;;;;;;;3.03;1.00;;;0.30;99.90;;;;;;5019593;28;20480;-77
2023/02/26 00:47:04;;;;;;;2.88;1.08;;;0.30;99.90;;;;;;5022344;28;20025;-75
2023/02/26 00:49:54;;;;;;;3.15;0.98;;;0.30;99.90;;;;;;5021997;28;20025;-76
2023/02/26 00:52:45;;;;;;;1.73;1.10;;;0.30;99.90;;;;;;5002860;28;20072;-77
2023/02/26 00:55:11;;;;;;;4.95;1.23;;;0.30;99.90;;;;;;5018937;28;20033;-78
2023/02/26 00:57:37;;;;;;;3.88;1.20;;;0.30;99.90;;;;;;5016180;28;20033;-77
2023/02/26 01:00:06;;;;;;;6.32;1.10;;;0.30;99.90;;;;;;5019274;28;20406;-77
2023/02/26 01:02:33;;;;;;;3.20;1.40;;;0.30;99.90;;;;;;5033196;28;20025;-77
2023/02/26 01:04:59;;;;;;;4.47;1.10;;;0.20;99.90;;;;;;5018585;28;20156;-75
2023/02/26 01:07:28;;;;;;;5.07;1.27;;;0.30;99.90;;;;;;5020474;28;20112;-75
2023/02/26 01:09:54;;;;;;;2.05;1.00;;;0.30;99.90;;;;;;5023966;28;20045;-77
2023/02/26 01:12:20;;;;;;;4.13;1.00;;;0.30;99.90;;;;;;5023858;28;20057;-74
2023/02/26 01:14:46;;;;;;;4.03;0.80;;;0.30;99.90;;;;;;5008006;28;20489;-76
2023/02/26 01:17:22;;;;;;;6.05;1.30;;;0.40;99.90;;;;;;5019444;28;20509;-77
2023/02/26 01:19:56;;;;;;;3.55;0.82;;;0.40;99.90;;;;;;5017082;28;20025;-76
2023/02/26 01:22:35;;;;;;;4.93;1.13;;;0.50;99.90;;;;;;5021236;28;20017;-74
2023/02/26 01:25:13;;;;;;;3.70;0.98;;;0.50;99.90;;;;;;5024105;28;20033;-76
2023/02/26 01:27:40;;;;;;;6.30;1.75;;;0.60;99.90;;;;;;5021795;28;20017;-74
2023/02/26 01:30:07;;;;;;;7.03;1.00;;;0.50;99.90;;;;;;5020415;28;20087;-76
2023/02/26 01:32:42;;;;;;;2.53;0.90;;;0.60;99.90;;;;;;5022542;28;20025;-75
2023/02/26 01:35:30;;;;;;;7.53;1.50;;;0.60;99.90;;;;;;5028278;28;20040;-74
2023/02/26 01:38:14;;;;;;;5.25;0.80;;;0.60;99.90;;;;;;5004977;28;20048;-76
2023/02/26 01:41:04;;;;;;;1.77;0.70;;;0.60;99.90;;;;;;5020980;28;20509;-76
2023/02/26 01:44:04;;;;;;;4.53;0.90;;;0.60;99.90;;;;;;5027345;28;20126;-77
2023/02/26 01:47:02;;;;;;;5.15;1.10;;;0.60;99.90;;;;;;5023511;28;20108;-74
2023/02/26 01:49:29;;;;;;;3.97;0.80;;;0.60;99.90;;;;;;5023250;28;20029;-77
2023/02/26 01:51:59;;;;;;;4.18;0.90;;;0.60;99.90;;;;;;5023212;28;20038;-76
2023/02/26 01:54:36;;;;;;;2.50;0.77;;;0.60;99.90;;;;;;5022243;28;20306;-75
2023/02/26 01:57:10;;;;;;;3.50;0.88;;;0.60;99.90;;;;;;5027016;28;20448;-75
2023/02/26 01:59:46;;;;;;;3.45;1.00;;;0.60;99.90;;;;;;5026576;28;20033;-75
2023/02/26 02:02:16;;;;;;;4.18;1.02;;;0.60;99.90;;;;;;5027713;28;20022;-76
2023/02/26 02:04:43;;;;;;;3.30;0.93;;;0.60;99.90;;;;;;5024038;28;20030;-74
2023/02/26 02:07:09;;;;;;;4.50;1.02;;;0.50;99.90;;;;;;5022411;28;20273;-76
2023/02/26 02:09:36;;;;;;;3.40;1.17;;;0.50;99.90;;;;;;5020454;28;20079;-76
2023/02/26 02:12:39;;;;;;;8.20;1.70;;;0.50;99.90;;;;;;5024160;28;20026;-76
2023/02/26 02:15:08;;;;;;;3.05;0.70;;;0.40;99.90;;;;;;5019629;28;20872;-74
2023/02/26 02:17:42;;;;;;;5.03;1.23;;;0.40;99.90;;;;;;5020271;28;20569;-74
2023/02/26 02:20:26;;;;;;;8.95;1.20;;;0.40;99.90;;;;;;5040937;28;20029;-75
2023/02/26 02:23:03;;;;;;;5.55;1.40;;;0.30;99.90;;;;;;5003692;28;20029;-75
2023/02/26 02:26:07;;;;;;;2.78;1.05;;;0.30;99.90;;;;;;5018602;28;20034;-76
2023/02/26 02:29:00;;;;;;;4.70;2.10;;;0.30;99.90;;;;;;4972303;28;20022;-76
2023/02/26 02:31:32;;;;;;;5.18;1.13;;;0.30;99.90;;;;;;4944234;28;20027;-77
2023/02/26 02:34:22;;;;;;;3.80;1.30;;;0.20;99.90;;;;;;4968517;28;20039;-76
2023/02/26 02:36:57;;;;;;;6.63;1.17;;;0.20;99.90;;;;;;4947615;28;20034;-75
2023/02/26 02:39:38;;;;;;;3.90;1.13;;;0.20;99.90;;;;;;4945475;28;20073;-75
2023/02/26 02:42:21;;;;;;;4.68;1.33;;;0.20;99.90;;;;;;4949414;28;20054;-75
2023/02/26 02:44:54;;;;;;;3.00;1.23;;;0.20;99.90;;;;;;4954371;28;20061;-75
2023/02/26 02:47:21;;;;;;;2.90;1.10;;;0.20;99.90;;;;;;4965485;28;20031;-74
2023/02/26 02:50:06;;;;;;;2.53;1.10;;;0.10;99.90;;;;;;4961918;28;20031;-77
2023/02/26 02:52:47;;;;;;;4.85;1.30;;;0.10;99.90;;;;;;4950213;28;20511;-76
2023/02/26 02:55:19;;;;;;;5.95;1.20;;;0.10;99.90;;;;;;4961980;28;20038;-75
2023/02/26 02:57:54;;;;;;;4.85;1.30;;;0.10;99.90;;;;;;4963583;28;20716;-77
2023/02/26 03:00:22;;;;;;;2.80;1.17;;;0.10;99.90;;;;;;5016328;28;20080;-77
2023/02/26 03:03:07;;;;;;;3.05;1.30;;;0.10;99.90;;;;;;5020550;28;20022;-75
2023/02/26 03:05:32;;;;;;;5.05;1.40;;;0.10;99.90;;;;;;5016844;28;20140;-74
2023/02/26 03:08:03;;;;;;;6.22;1.40;;;0.10;99.90;;;;;;5001783;28;20108;-74
2023/02/26 03:10:30;;;;;;;5.90;1.48;;;0.10;99.90;;;;;;5004971;28;20600;-76
2023/02/26 03:12:56;;;;;;;4.30;1.15;;;0.10;99.90;;;;;;5018420;28;20406;-76
2023/02/26 03:15:54;;;;;;;4.05;1.05;;;0.10;99.90;;;;;;5022608;28;20025;-74
2023/02/26 03:18:44;;;;;;;4.30;1.08;;;0.10;99.90;;;;;;4999514;28;20033;-76
2023/02/26 03:21:17;;;;;;;2.30;1.13;;;0.00;99.90;;;;;;5025758;28;20320;-75
2023/02/26 03:23:53;;;;;;;2.75;0.82;;;0.00;99.90;;;;;;5016771;28;20026;-74
2023/02/26 03:26:29;;;;;;;3.50;1.20;;;0.00;99.90;;;;;;5023727;28;20017;-76
2023/02/26 03:29:51;;;;;;;5.07;1.13;;;0.00;99.90;;;;;;5027755;28;20021;-77
2023/02/26 03:32:25;;;;;;;3.83;1.20;;;0.00;99.90;;;;;;4981809;28;20037;-77
2023/02/26 03:35:15;;;;;;;3.42;0.93;;;0.00;99.90;;;;;;5032063;28;20035;-76
2023/02/26 03:37:45;;;;;;;2.97;0.85;;;0.00;99.90;;;;;;5022350;28;20057;-77
2023/02/26 03:40:17;;;;;;;3.80;1.07;;;-0.10;99.90;;;;;;5026571;28;20054;-77
2023/02/26 03:42:52;;;;;;;3.47;0.80;;;-0.10;99.90;;;;;;5001465;28;20298;-75
2023/02/26 03:45:29;;;;;;;2.92;0.80;;;0.00;99.90;;;;;;5019024;28;20022;-77
2023/02/26 03:47:57;;;;;;;2.92;0.90;;;0.00;99.90;;;;;;5015090;28;20485;-76
2023/02/26 03:50:38;;;;;;;3.40;0.90;;;-0.10;99.90;;;;;;4998486;28;20611;-76
2023/02/26 03:53:14;;;;;;;3.47;1.00;;;-0.10;99.90;;;;;;5015205;28;20029;-76
2023/02/26 03:55:52;;;;;;;2.92;1.15;;;-0.10;99.90;;;;;;5015827;28;20037;-75
2023/02/26 03:58:18;;;;;;;4.25;1.00;;;-0.10;99.90;;;;;;5016742;28;20029;-77
2023/02/26 04:00:49;;;;;;;6.53;0.82;;;-0.20;99.90;;;;;;5014229;28;20038;-76
2023/02/26 04:03:29;;;;;;;2.30;0.80;;;-0.20;99.90;;;;;;4995891;28;20504;-77
2023/02/26 04:05:56;;;;;;;1.95;0.70;;;-0.20;99.90;;;;;;5013709;28;20028;-77
2023/02/26 04:08:22;;;;;;;3.38;1.20;;;-0.10;99.90;;;;;;5015299;28;20113;-77
2023/02/26 04:10:56;;;;;;;5.45;1.92;;;-0.20;99.90;;;;;;5016553;28;20033;-75
2023/02/26 04:13:22;;;;;;;3.00;0.88;;;-0.20;99.90;;;;;;5014249;28;20029;-75
2023/02/26 04:15:47;;;;;;;4.22;1.17;;;-0.20;99.90;;;;;;5015364;28;20400;-76
2023/02/26 04:18:13;;;;;;;1.90;0.70;;;-0.20;99.90;;;;;;4997376;28;20096;-75
2023/02/26 04:20:39;;;;;;;2.65;1.30;;;-0.20;99.90;;;;;;4998876;28;20509;-74
2023/02/26 04:23:04;;;;;;;5.30;1.08;;;-0.10;99.90;;;;;;4997964;28;20026;-76
2023/02/26 04:25:30;;;;;;;3.75;0.80;;;-0.20;99.90;;;;;;5001085;28;20021;-77
2023/02/26 04:27:56;;;;;;;4.70;1.15;;;-0.20;99.90;;;;;;5001617;28;20034;-74
2023/02/26 04:30:21;;;;;;;7.68;0.80;;;-0.20;99.90;;;;;;5013794;28;20033;-76
2023/02/26 04:32:47;;;;;;;7.40;1.75;;;-0.20;99.90;;;;;;5014978;28;20060;-76
2023/02/26 04:35:13;;;;;;;6.95;1.00;;;-0.20;99.90;;;;;;5018277;28;20127;-74
2023/02/26 04:37:39;;;;;;;4.45;1.27;;;-0.20;99.90;;;;;;5014510;28;20057;-76
2023/02/26 04:40:06;;;;;;;2.97;1.00;;;-0.30;99.90;;;;;;5014266;28;20092;-74
2023/02/26 04:42:31;;;;;;;4.07;0.90;;;-0.20;99.90;;;;;;5013845;28;20025;-76
2023/02/26 04:44:57;;;;;;;3.25;1.25;;;-0.20;99.90;;;;;;5016022;28;20069;-76
2023/02/26 04:47:23;;;;;;;4.55;1.10;;;-0.20;99.90;;;;;;5012873;28;20058;-76
2023/02/26 04:49:48;;;;;;;3.80;1.17;;;-0.30;99.90;;;;;;5013255;28;20056;-76
2023/02/26 04:52:14;;;;;;;4.55;0.98;;;-0.20;99.90;;;;;;5016748;28;20033;-76
2023/02/26 04:54:40;;;;;;;2.22;0.88;;;-0.30;99.90;;;;;;5014700;28;20029;-74
2023/02/26 04:57:06;;;;;;;6.28;1.88;;;-0.30;99.90;;;;;;5012627;28;20029;-76
2023/02/26 04:59:32;;;;;;;1.95;0.77;;;-0.30;99.90;;;;;;4997064;28;20040;-76
2023/02/26 05:01:57;;;;;;;5.40;0.82;;;-0.30;99.90;;;;;;5014557;28;20030;-76
2023/02/26 05:04:23;;;;;;;4.70;0.90;;;-0.30;99.90;;;;;;5014206;28;20034;-76
2023/02/26 05:06:49;;;;;;;5.28;1.27;;;-0.30;99.90;;;;;;5016723;28;20033;-76
2023/02/26 05:09:15;;;;;;;2.15;0.80;;;-0.30;99.90;;;;;;5021194;28;20117;-76
2023/02/26 05:11:40;;;;;;;5.53;1.02;;;-0.40;99.90;;;;;;5016506;28;20416;-74
2023/02/26 05:14:06;;;;;;;4.72;1.20;;;-0.40;99.90;;;;;;5019965;28;20091;-76
2023/02/26 05:16:32;;;;;;;13.95;1.15;;;-0.30;99.90;;;;;;5018433;28;20044;-76
2023/02/26 05:18:58;;;;;;;4.80;0.90;;;-0.30;99.90;;;;;;5001285;28;20055;-76
2023/02/26 05:21:23;;;;;;;4.88;1.05;;;-0.40;99.90;;;;;;5018465;28;20025;-76
2023/02/26 05:23:49;;;;;;;3.38;0.85;;;-0.40;99.90;;;;;;5017772;28;21532;-76
2023/02/26 05:26:15;;;;;;;5.60;1.10;;;-0.40;99.90;;;;;;5021922;28;20097;-74
2023/02/26 05:28:44;;;;;;;4.82;0.93;;;-0.40;99.90;;;;;;5022792;28;20284;-76
2023/02/26 05:31:10;;;;;;;1.95;0.75;;;-0.40;99.90;;;;;;5001676;28;20033;-74
2023/02/26 05:33:36;;;;;;;4.63;1.15;;;-0.50;99.90;;;;;;5019219;28;20421;-76
2023/02/26 05:36:02;;;;;;;4.03;1.00;;;-0.40;99.90;;;;;;5018208;28;20030;-76
2023/02/26 05:38:28;;;;;;;4.97;1.13;;;-0.50;99.90;;;;;;5018193;28;20464;-74
2023/02/26 05:40:57;;;;;;;2.30;0.88;;;-0.50;99.90;;;;;;5018451;28;20037;-74
2023/02/26 05:43:24;;;;;;;6.65;1.05;;;-0.50;99.90;;;;;;5017603;28;20034;-74
2023/02/26 05:45:50;;;;;;;4.18;0.90;;;-0.60;99.90;;;;;;5017406;28;20102;-75
2023/02/26 05:48:16;;;;;;;4.68;1.00;;;-0.60;99.90;;;;;;4998971;28;20123;-76
2023/02/26 05:50:41;;;;;;;7.22;0.85;;;-0.60;99.90;;;;;;5018866;28;20022;-75
2023/02/26 05:53:07;;;;;;;6.78;0.98;;;-0.60;99.90;;;;;;5017631;28;20767;-75
2023/02/26 05:55:33;;;;;;;3.42;0.77;;;-0.60;99.90;;;;;;5002593;28;20429;-76
2023/02/26 05:57:59;;;;;;;4.10;1.00;;;-0.60;99.90;;;;;;5019257;28;20081;-74
2023/02/26 06:00:25;;;;;;;5.38;1.38;;;-0.70;99.90;;;;;;5015274;28;21006;-76
2023/02/26 06:02:51;;;;;;;2.25;0.82;;;-0.70;99.90;;;;;;5012691;28;20038;-77
2023/02/26 06:05:17;;;;;;;3.45;1.15;;;-0.60;99.90;;;;;;5015244;28;20045;-74
2023/02/26 06:07:43;;;;;;;3.85;1.00;;;-0.70;99.90;;;;;;5014541;28;20139;-78
2023/02/26 06:10:10;;;;;;;3.67;0.98;;;-0.70;99.90;;;;;;5017560;28;20053;-78
2023/02/26 06:12:36;;;;;;;3.17;0.90;;;-0.70;99.90;;;;;;5015420;28;20025;-74
2023/02/26 06:15:03;;;;;;;4.78;0.85;;;-0.70;99.90;;;;;;5018678;28;20021;-77
2023/02/26 06:17:29;;;;;;;3.22;0.93;;;-0.70;99.90;;;;;;4998839;28;20028;-75
2023/02/26 06:19:54;;;;;;;3.55;1.20;;;-0.70;99.90;;;;;;5002106;28;20404;-75
2023/02/26 06:22:20;;;;;;;5.78;1.10;;;-0.70;99.90;;;;;;5017445;28;20079;-75
2023/02/26 06:24:46;;;;;;;4.30;0.93;;;-0.70;99.90;;;;;;5019209;28;20512;-74
2023/02/26 06:27:12;;;;;;;4.93;1.10;;;-0.70;99.90;;;;;;5019423;28;20049;-77
2023/02/26 06:29:38;;;;;;;5.28;1.42;;;-0.70;99.90;;;;;;5017873;28;20021;-74
2023/02/26 06:32:05;;;;;;;2.88;0.90;;;-0.80;99.90;;;;;;5018051;28;20033;-74
2023/02/26 06:34:31;;;;;;;6.78;1.30;;;-0.70;99.90;;;;;;5010068;28;20160;-74
2023/02/26 06:36:57;;;;;;;2.80;0.85;;;-0.70;99.90;;;;;;5019263;28;20110;-77
2023/02/26 06:39:22;;;;;;;4.32;0.90;;;-0.70;99.90;;;;;;5015547;28;20519;-74
2023/02/26 06:41:48;;;;;;;2.50;0.80;;;-0.70;99.90;;;;;;5014653;28;20029;-76
2023/02/26 06:44:14;;;;;;;5.78;1.10;;;-0.70;99.90;;;;;;5017615;28;20492;-76
2023/02/26 06:46:40;;;;;;;1.67;0.60;;;-0.70;99.90;;;;;;5008831;28;20072;-75
2023/02/26 06:49:07;;;;;;;4.82;0.90;;;-0.70;99.90;;;;;;5017491;28;20034;-75
2023/02/26 06:51:33;;;;;;;5.85;0.93;;;-0.70;99.90;;;;;;5036550;28;20026;-77
2023/02/26 06:53:58;;;;;;;4.65;0.93;;;-0.70;99.90;;;;;;5018772;28;20192;-76
2023/02/26 06:56:24;;;;;;;6.20;1.10;;;-0.60;99.90;;;;;;5014766;28;20026;-77
2023/02/26 06:58:50;;;;;;;3.53;1.20;;;-0.60;99.90;;;;;;5017558;28;20030;-75
2023/02/26 07:01:16;;;;;;;2.70;1.02;;;-0.60;99.90;;;;;;4997963;28;20037;-76
2023/02/26 07:03:42;;;;;;;5.35;1.00;;;-0.50;99.90;;;;;;5002054;28;20049;-74
2023/02/26 07:06:10;;;;;;;3.42;0.95;;;-0.40;99.90;;;;;;5015023;28;20030;-77
2023/02/26 07:08:36;;;;;;;4.13;0.88;;;-0.30;99.90;;;;;;5014474;28;20035;-73
2023/02/26 07:11:02;;;;;;;4.40;1.10;;;-0.20;99.90;;;;;;5019517;28;20112;-77
2023/02/26 07:13:28;;;;;;;9.48;1.85;;;-0.10;99.90;;;;;;5001306;28;20034;-76
2023/02/26 07:15:54;;;;;;;5.15;1.20;;;-0.10;99.90;;;;;;5014141;28;20032;-76
2023/02/26 07:18:21;;;;;;;3.63;0.80;;;-0.10;99.90;;;;;;5015662;28;20056;-74
2023/02/26 07:20:49;;;;;;;3.85;1.38;;;-0.10;99.90;;;;;;5018875;28;20481;-77
2023/02/26 07:23:14;;;;;;;3.28;1.08;;;-0.10;99.90;;;;;;5029781;28;20085;-75
2023/02/26 07:25:40;;;;;;;2.92;1.23;;;-0.10;99.90;;;;;;5024366;28;20048;-74
2023/02/26 07:28:06;;;;;;;3.42;1.23;;;-0.10;99.90;;;;;;5018197;28;20026;-74
2023/02/26 07:30:32;;;;;;;3.38;1.15;;;-0.10;99.90;;;;;;5015449;28;20071;-73
2023/02/26 07:32:58;;;;;;;4.20;1.30;;;-0.10;99.90;;;;;;5012953;28;20219;-73
2023/02/26 07:35:24;;;;;;;2.65;1.17;;;-0.20;99.90;;;;;;5014911;28;20469;-74
2023/02/26 07:37:50;;;;;;;4.07;1.17;;;-0.20;99.90;;;;;;4994662;28;20049;-73
2023/02/26 07:40:17;;;;;;;5.72;1.45;;;-0.20;99.90;;;;;;5013296;28;20053;-75
2023/02/26 07:42:43;;;;;;;6.65;1.42;;;-0.30;99.90;;;;;;5014896;28;20128;-77
2023/02/26 07:45:09;;;;;;;3.88;1.20;;;-0.30;99.90;;;;;;5009256;28;20109;-76
2023/02/26 07:47:35;;;;;;;5.93;1.92;;;-0.20;99.90;;;;;;5013083;28;20088;-76
2023/02/26 07:50:01;;;;;;;4.03;1.20;;;-0.20;99.90;;;;;;5007469;28;20399;-74
2023/02/26 07:52:27;;;;;;;4.68;1.25;;;-0.20;99.90;;;;;;5011183;28;20087;-77
2023/02/26 07:54:53;;;;;;;4.25;1.00;;;-0.10;99.90;;;;;;4996831;28;20437;-76
2023/02/26 07:57:20;;;;;;;2.75;1.00;;;-0.10;99.90;;;;;;5016277;28;20037;-76
2023/02/26 07:59:46;;;;;;;5.60;1.35;;;-0.10;99.90;;;;;;5013519;28;20059;-76
2023/02/26 08:02:14;;;;;;;5.82;2.13;;;0.00;99.90;;;;;;5014357;28;20049;-76
2023/02/26 08:04:39;;;;;;;3.63;1.00;;;0.00;99.90;;;;;;5014067;28;20503;-74
2023/02/26 08:07:06;;;;;;;5.90;1.45;;;0.00;99.90;;;;;;5018468;28;20040;-74
2023/02/26 08:09:32;;;;;;;4.57;1.38;;;0.10;99.90;;;;;;5016057;28;20402;-74
2023/02/26 08:11:57;;;;;;;4.10;1.25;;;0.10;99.90;;;;;;5011117;28;20029;-75
2023/02/26 08:14:23;;;;;;;2.83;1.20;;;0.10;99.90;;;;;;4993855;28;20036;-74
2023/02/26 08:16:49;;;;;;;4.03;1.30;;;0.20;99.90;;;;;;5015489;28;20089;-74
2023/02/26 08:19:15;;;;;;;3.63;1.27;;;0.20;99.90;;;;;;5013656;28;20383;-74
2023/02/26 08:21:41;;;;;;;4.50;1.20;;;0.30;99.90;;;;;;5002745;28;20079;-75
2023/02/26 08:24:07;;;;;;;3.90;1.17;;;0.30;99.90;;;;;;5017245;28;20030;-74
2023/02/26 08:26:37;;;;;;;4.85;1.25;;;0.40;99.90;;;;;;5014801;28;20033;-74
2023/02/26 08:29:04;;;;;;;3.08;1.10;;;0.40;99.90;;;;;;5011132;28;20104;-74
2023/02/26 08:31:33;;;;;;;6.03;1.65;;;0.50;99.90;;;;;;5011729;28;20021;-75
2023/02/26 08:33:59;;;;;;;5.45;1.17;;;0.50;99.90;;;;;;5011231;28;20036;-74
2023/02/26 08:36:25;;;;;;;6.50;1.35;;;0.50;99.90;;;;;;5012967;28;20026;-74
2023/02/26 08:38:51;;;;;;;1.83;0.90;;;0.50;99.90;;;;;;5014559;28;20072;-76
2023/02/26 08:41:16;;;;;;;3.70;1.30;;;0.60;99.90;;;;;;5015914;28;20037;-76
2023/02/26 08:43:43;;;;;;;5.13;1.55;;;0.60;99.90;;;;;;5017852;28;20080;-76
2023/02/26 08:46:08;;;;;;;6.22;1.30;;;0.60;99.90;;;;;;5022404;28;20081;-78
2023/02/26 08:48:34;;;;;;;6.32;1.10;;;0.70;99.90;;;;;;5001423;28;20073;-78
2023/02/26 08:51:00;;;;;;;2.97;1.20;;;0.70;99.90;;;;;;5019426;28;20025;-75
2023/02/26 08:53:26;;;;;;;3.05;1.20;;;0.70;99.90;;;;;;5022636;28;20120;-75
2023/02/26 08:55:52;;;;;;;5.45;1.20;;;0.70;99.90;;;;;;5026513;28;20057;-74
2023/02/26 08:58:20;;;;;;;4.18;1.33;;;0.80;99.90;;;;;;5024268;28;20029;-75
2023/02/26 09:00:46;;;;;;;6.40;1.33;;;0.80;99.90;;;;;;5019464;28;20493;-76
2023/02/26 09:03:13;;;;;;;4.95;1.83;;;0.90;99.90;;;;;;5021046;28;20040;-78
2023/02/26 09:05:39;;;;;;;4.82;1.35;;;0.90;99.90;;;;;;5026255;28;20030;-76
2023/02/26 09:08:06;;;;;;;2.50;1.10;;;1.20;99.90;;;;;;5019125;28;20025;-77
2023/02/26 09:10:32;;;;;;;3.60;1.50;;;1.70;99.90;;;;;;5018714;28;20021;-74
2023/02/26 09:12:58;;;;;;;5.43;1.40;;;1.40;99.90;;;;;;5021880;28;20543;-77
2023/02/26 09:15:25;;;;;;;3.70;1.25;;;1.30;99.90;;;;;;5020304;28;20042;-74
2023/02/26 09:17:50;;;;;;;4.55;1.13;;;1.30;99.90;;;;;;5024220;28;20021;-74
2023/02/26 09:20:16;;;;;;;3.90;0.90;;;1.20;99.90;;;;;;5021183;28;20045;-77
2023/02/26 09:22:42;;;;;;;6.45;3.15;;;1.20;99.90;;;;;;5022118;28;20049;-75
2023/02/26 09:25:09;;;;;;;4.22;1.27;;;1.20;99.90;;;;;;5009245;28;20057;-74
2023/02/26 09:27:35;;;;;;;3.97;1.10;;;1.30;99.90;;;;;;5024702;28;20065;-75
2023/02/26 09:30:02;;;;;;;4.35;1.10;;;1.30;99.90;;;;;;5033361;28;20034;-77
2023/02/26 09:32:28;;;;;;;7.53;1.60;;;1.30;99.90;;;;;;5029171;28;20025;-77
2023/02/26 09:34:53;;;;;;;2.45;1.13;;;1.40;99.90;;;;;;5010071;28;20392;-75
2023/02/26 09:37:19;;;;;;;4.40;1.17;;;1.40;99.90;;;;;;5019875;28;20030;-75
2023/02/26 09:39:45;;;;;;;6.40;1.60;;;1.50;99.90;;;;;;5019767;28;20087;-75
2023/02/26 09:42:32;;;;;;;3.15;1.17;;;1.60;99.90;;;;;;5016800;28;20025;-78
2023/02/26 09:44:58;;;;;;;3.67;1.00;;;1.60;99.90;;;;;;5017047;28;20041;-75
2023/02/26 09:47:45;;;;;;;5.72;1.08;;;1.80;99.90;;;;;;5024408;28;20029;-77
2023/02/26 09:50:38;;;;;;;3.40;0.90;;;1.90;99.90;;;;;;5004994;28;20390;-75
2023/02/26 09:53:12;;;;;;;2.80;0.90;;;1.90;99.90;;;;;;5022503;28;20025;-76
2023/02/26 09:55:43;;;;;;;4.55;1.27;;;2.00;99.90;;;;;;5018934;28;20046;-77
2023/02/26 09:58:18;;;;;;;;;;;2.10;99.90;;;;;;5026057;28;20393;-78
2023/02/26 10:01:04;;;;;;;5.57;1.02;;;2.20;99.90;;;;;;5024383;28;19936;-77
2023/02/26 10:03:55;;;;;;;1.27;0.60;;;2.40;99.90;;;;;;5029472;28;20038;-75
2023/02/26 10:06:21;;;;;;;;;;;2.70;99.90;;;;;;4982598;28;20099;-77
2023/02/26 10:09:02;;;;;;;2.20;0.90;;;3.00;99.90;;;;;;5031252;28;19912;-78
2023/02/26 10:11:43;;;;;;;2.33;0.88;;;2.90;99.90;;;;;;5024949;28;20026;-78
2023/02/26 10:14:30;;;;;;;2.03;0.65;;;3.10;99.90;;;;;;5031085;28;20510;-77
2023/02/26 10:17:02;;;;;;;2.55;0.70;;;3.00;99.90;;;;;;5025088;28;20099;-78
2023/02/26 10:19:40;;;;;;;2.28;0.70;;;2.80;99.90;;;;;;5018452;28;20567;-77
2023/02/26 10:22:46;;;;;;;1.83;0.75;;;3.00;99.90;;;;;;5005110;28;20040;-78
2023/02/26 10:25:20;;;;;;;1.15;0.50;;;3.40;99.90;;;;;;5019631;28;20036;-76
2023/02/26 10:27:57;;;;;;;2.55;1.15;;;4.00;99.90;;;;;;5019625;28;20018;-76
2023/02/26 10:30:53;;;;;;;5.68;0.90;;;4.00;99.90;;;;;;5010637;28;20030;-76
2023/02/26 10:33:52;;;;;;;1.70;0.70;;;4.10;99.90;;;;;;5004975;28;20037;-74
2023/02/26 10:36:26;;;;;;;3.08;0.80;;;4.80;99.90;;;;;;5023018;28;20032;-77
2023/02/26 10:39:21;;;;;;;3.65;0.77;;;5.90;98.20;;;;;;5031545;28;20033;-77
2023/02/26 10:41:47;;;;;;;1.65;0.82;;;5.50;93.10;;;;;;5016194;28;20371;-76
2023/02/26 10:44:20;;;;;;;1.88;0.70;;;5.60;94.60;;;;;;5024119;28;20037;-77
2023/02/26 10:46:56;;;;;;;4.75;0.80;;;5.30;93.60;;;;;;5020154;28;20064;-75
2023/02/26 10:49:46;;;;;;;2.65;0.70;;;5.20;94.40;;;;;;5023859;28;20430;-75
2023/02/26 10:52:19;;;;;;;1.90;1.02;;;4.80;94.60;;;;;;5025991;28;20025;-76
2023/02/26 10:55:24;;;;;;;1.13;0.50;;;5.10;96.00;;;;;;5020927;28;20028;-78
2023/02/26 10:58:22;;;;;;;1.80;0.60;;;5.70;93.30;;;;;;5014559;28;20022;-78
2023/02/26 11:00:52;;;;;;;2.15;0.73;;;6.50;88.80;;;;;;5008797;28;20033;-75
2023/02/26 11:03:39;;;;;;;1.75;0.52;;;7.10;85.20;;;;;;5010987;28;20029;-74
2023/02/26 11:06:06;;;;;;;1.52;0.50;;;7.20;80.70;;;;;;5019687;28;20504;-76
2023/02/26 11:08:44;;;;;;;2.83;1.00;;;7.50;78.50;;;;;;5029331;28;20431;-77
2023/02/26 11:11:10;;;;;;;2.15;0.90;;;7.10;80.40;;;;;;5033066;28;20030;-74
2023/02/26 11:13:37;;;;;;;1.77;0.70;;;7.10;82.10;;;;;;5037811;28;20034;-74
2023/02/26 11:16:17;;;;;;;3.28;0.80;;;7.90;78.60;;;;;;5027439;28;20176;-78
2023/02/26 11:18:52;;;;;;;1.83;0.50;;;8.20;74.90;;;;;;5015584;28;20037;-80
2023/02/26 11:21:28;;;;;;;2.78;1.10;;;8.60;72.90;;;;;;4992012;28;20488;-75
2023/02/26 11:24:03;;;;;;;2.17;0.85;;;8.10;74.60;;;;;;5016815;28;20117;-76
2023/02/26 11:26:38;;;;;;;2.28;0.70;;;8.50;72.70;;;;;;5018885;28;20061;-75
2023/02/26 11:29:05;;;;;;;1.92;0.70;;;7.60;75.20;;;;;;5016688;28;20037;-75
2023/02/26 11:31:31;;;;;;;1.60;0.80;;;6.80;77.90;;;;;;5016738;28;20075;-77
2023/02/26 11:34:10;;;;;;;2.72;0.75;;;5.90;80.40;;;;;;5016515;28;20497;-75
2023/02/26 11:36:39;;;;;;;2.35;0.60;;;5.40;86.80;;;;;;5017914;28;20095;-74
2023/02/26 11:39:15;;;;;;;3.50;0.82;;;5.20;90.40;;;;;;5017299;28;20017;-74
2023/02/26 11:41:45;;;;;;;4.43;0.85;;;5.20;91.70;;;;;;5018160;28;20080;-74
2023/02/26 11:44:17;;;;;;;3.00;0.65;;;4.80;92.50;;;;;;5017565;28;20041;-74
2023/02/26 11:46:47;;;;;;;6.43;1.27;;;4.30;94.80;;;;;;5012904;28;20396;-75
2023/02/26 11:49:17;;;;;;;3.03;0.90;;;4.10;97.80;;;;;;5013775;28;20683;-76
2023/02/26 11:51:45;;;;;;;4.50;1.30;;;4.10;99.60;;;;;;5019219;28;20121;-73
2023/02/26 11:54:23;;;;;;;3.08;1.10;;;4.20;99.90;;;;;;5016886;28;20037;-74
2023/02/26 11:56:49;;;;;;;5.30;1.20;;;4.20;99.90;;;;;;5020304;28;20029;-75
2023/02/26 11:59:21;;;;;;;2.35;1.00;;;4.10;99.90;;;;;;5020568;28;20025;-76
2023/02/26 12:01:48;;;;;;;1.98;0.85;;;4.20;99.90;;;;;;5019662;28;20030;-75
2023/02/26 12:04:18;;;;;;;3.42;0.98;;;4.00;99.90;;;;;;5019528;28;20026;-75
2023/02/26 12:06:48;;;;;;;4.53;1.35;;;4.50;99.90;;;;;;5017362;28;20388;-75
2023/02/26 12:09:14;;;;;;;4.72;1.33;;;5.50;99.90;;;;;;5015785;28;20026;-76
2023/02/26 12:12:04;;;;;;;3.40;1.00;;;5.60;99.90;;;;;;5015129;28;20469;-75
2023/02/26 12:14:48;;;;;;;4.05;1.10;;;5.70;99.90;;;;;;5021006;28;20485;-74
2023/02/26 12:17:38;;;;;;;3.35;0.95;;;4.90;99.90;;;;;;5015236;28;20128;-77
2023/02/26 12:20:19;;;;;;;7.03;1.15;;;4.70;99.90;;;;;;5019295;28;20030;-73
2023/02/26 12:22:53;;;;;;;;;;;5.10;99.90;;;;;;5019974;28;20025;-73
2023/02/26 12:25:29;;;;;;;4.72;1.35;;;6.40;99.90;;;;;;5017692;28;19932;-74
2023/02/26 12:27:57;;;;;;;4.10;1.00;;;5.30;99.90;;;;;;5017412;28;20107;-72
2023/02/26 12:30:32;;;;;;;3.03;1.33;;;4.70;99.90;;;;;;5018525;28;20124;-73
2023/02/26 12:33:03;;;;;;;11.00;2.22;;;4.60;99.90;;;;;;5032593;28;20124;-77
2023/02/26 12:35:55;;;;;;;3.70;1.33;;;5.00;99.90;;;;;;5011400;28;20021;-78
2023/02/26 12:38:27;;;;;;;4.40;1.08;;;4.70;99.90;;;;;;5013829;28;20037;-75
2023/02/26 12:40:58;;;;;;;3.58;1.15;;;4.60;99.90;;;;;;5025279;28;20033;-73
2023/02/26 12:43:43;;;;;;;8.93;1.25;;;4.60;99.90;;;;;;5016996;28;20034;-73
2023/02/26 12:46:34;;;;;;;4.05;1.02;;;4.50;99.90;;;;;;5020053;28;20025;-74
2023/02/26 12:49:37;;;;;;;4.45;0.95;;;4.50;99.90;;;;;;5018990;28;20032;-73
2023/02/26 12:52:14;;;;;;;4.45;1.08;;;4.50;99.90;;;;;;4996607;28;20048;-74
2023/02/26 12:54:49;;;;;;;6.40;1.30;;;4.50;99.90;;;;;;5016245;28;20029;-73
2023/02/26 12:57:32;;;;;;;2.25;1.10;;;4.40;99.90;;;;;;5015232;28;20495;-75
2023/02/26 13:00:20;;;;;;;3.40;1.20;;;4.30;99.90;;;;;;5013946;28;20029;-75
2023/02/26 13:03:16;;;;;;;5.63;1.10;;;4.30;99.90;;;;;;5018214;28;20022;-74
2023/02/26 13:06:00;;;;;;;4.28;1.27;;;4.40;99.90;;;;;;5018154;28;20034;-76
2023/02/26 13:08:48;;;;;;;7.60;1.73;;;4.40;99.90;;;;;;5021251;28;20022;-75
2023/02/26 13:11:14;;;;;;;3.92;1.00;;;4.40;99.90;;;;;;5013912;28;20030;-74
2023/02/26 13:14:04;;;;;;;1.65;0.98;;;4.40;99.90;;;;;;5021487;28;20057;-77
2023/02/26 13:16:50;;;;;;;7.53;1.20;;;4.40;99.90;;;;;;5023408;28;20099;-74
2023/02/26 13:19:16;;;;;;;7.10;1.40;;;4.40;99.90;;;;;;4999234;28;20057;-77
2023/02/26 13:21:46;;;;;;;3.03;1.33;;;4.50;99.90;;;;;;5014424;28;20056;-74